sensor_id;sensor_type;location;lat;lon;timestamp;temperature;humidity
14531;DHT22;7352;50.866;4.366;2023-06-14T00:02:16;24.50;58.20
14531;DHT22;7352;50.866;4.366;2023-06-14T00:04:49;24.30;58.20
14531;DHT22;7352;50.866;4.366;2023-06-14T00:07:33;24.10;58.30
14531;DHT22;7352;50.866;4.366;2023-06-14T00:10:14;24.10;58.60
14531;DHT22;7352;50.866;4.366;2023-06-14T00:12:51;24.00;58.30
14531;DHT22;7352;50.866;4.366;2023-06-14T00:15:22;23.90;58.40
14531;DHT22;7352;50.866;4.366;2023-06-14T00:17:50;23.80;57.90
14531;DHT22;7352;50.866;4.366;2023-06-14T00:20:18;23.70;57.80
14531;DHT22;7352;50.866;4.366;2023-06-14T00:22:46;23.80;58.30
14531;DHT22;7352;50.866;4.366;2023-06-14T00:25:14;23.90;57.90
14531;DHT22;7352;50.866;4.366;2023-06-14T00:27:41;24.00;57.70
14531;DHT22;7352;50.866;4.366;2023-06-14T00:30:09;23.90;58.00
14531;DHT22;7352;50.866;4.366;2023-06-14T00:32:36;23.90;57.90
14531;DHT22;7352;50.866;4.366;2023-06-14T00:35:04;23.80;57.90
14531;DHT22;7352;50.866;4.366;2023-06-14T00:37:32;23.70;57.80
14531;DHT22;7352;50.866;4.366;2023-06-14T00:39:59;23.90;58.50
14531;DHT22;7352;50.866;4.366;2023-06-14T00:42:27;23.90;58.10
14531;DHT22;7352;50.866;4.366;2023-06-14T00:44:55;23.90;57.80
14531;DHT22;7352;50.866;4.366;2023-06-14T00:47:22;24.20;57.70
14531;DHT22;7352;50.866;4.366;2023-06-14T00:49:50;24.10;58.10
14531;DHT22;7352;50.866;4.366;2023-06-14T00:52:20;23.90;58.20
14531;DHT22;7352;50.866;4.366;2023-06-14T00:55:00;23.80;58.10
14531;DHT22;7352;50.866;4.366;2023-06-14T00:57:47;23.70;58.20
14531;DHT22;7352;50.866;4.366;2023-06-14T01:03:36;23.60;58.60
14531;DHT22;7352;50.866;4.366;2023-06-14T01:06:19;23.60;59.20
14531;DHT22;7352;50.866;4.366;2023-06-14T01:09:00;23.50;59.10
14531;DHT22;7352;50.866;4.366;2023-06-14T01:11:34;23.30;59.20
14531;DHT22;7352;50.866;4.366;2023-06-14T01:14:03;23.20;59.30
14531;DHT22;7352;50.866;4.366;2023-06-14T01:16:32;23.20;59.80
14531;DHT22;7352;50.866;4.366;2023-06-14T01:19:01;23.20;59.60
14531;DHT22;7352;50.866;4.366;2023-06-14T01:21:28;23.20;59.60
14531;DHT22;7352;50.866;4.366;2023-06-14T01:23:57;23.10;59.70
14531;DHT22;7352;50.866;4.366;2023-06-14T01:26:25;23.20;59.50
14531;DHT22;7352;50.866;4.366;2023-06-14T01:28:55;23.00;60.20
14531;DHT22;7352;50.866;4.366;2023-06-14T01:31:24;23.10;60.30
14531;DHT22;7352;50.866;4.366;2023-06-14T01:33:53;23.00;60.60
14531;DHT22;7352;50.866;4.366;2023-06-14T01:36:20;23.10;60.60
14531;DHT22;7352;50.866;4.366;2023-06-14T01:38:48;23.10;60.90
14531;DHT22;7352;50.866;4.366;2023-06-14T01:41:19;22.90;61.10
14531;DHT22;7352;50.866;4.366;2023-06-14T01:43:49;22.80;61.40
14531;DHT22;7352;50.866;4.366;2023-06-14T01:46:16;22.60;60.70
14531;DHT22;7352;50.866;4.366;2023-06-14T01:48:44;22.60;61.60
14531;DHT22;7352;50.866;4.366;2023-06-14T01:51:11;22.70;61.50
14531;DHT22;7352;50.866;4.366;2023-06-14T01:53:38;22.60;61.30
14531;DHT22;7352;50.866;4.366;2023-06-14T01:56:06;22.80;60.10
14531;DHT22;7352;50.866;4.366;2023-06-14T01:58:34;22.80;60.50
14531;DHT22;7352;50.866;4.366;2023-06-14T02:01:02;22.70;60.90
14531;DHT22;7352;50.866;4.366;2023-06-14T02:03:30;22.50;62.20
14531;DHT22;7352;50.866;4.366;2023-06-14T02:05:57;22.50;61.60
14531;DHT22;7352;50.866;4.366;2023-06-14T02:08:25;22.60;61.30
14531;DHT22;7352;50.866;4.366;2023-06-14T02:10:52;22.60;61.40
14531;DHT22;7352;50.866;4.366;2023-06-14T02:13:19;22.50;61.00
14531;DHT22;7352;50.866;4.366;2023-06-14T02:15:47;22.40;61.00
14531;DHT22;7352;50.866;4.366;2023-06-14T02:18:19;22.40;61.40
14531;DHT22;7352;50.866;4.366;2023-06-14T02:20:47;22.30;61.00
14531;DHT22;7352;50.866;4.366;2023-06-14T02:23:14;22.40;60.90
14531;DHT22;7352;50.866;4.366;2023-06-14T02:25:41;22.30;61.10
14531;DHT22;7352;50.866;4.366;2023-06-14T02:28:11;22.60;61.20
14531;DHT22;7352;50.866;4.366;2023-06-14T02:30:38;22.60;61.30
14531;DHT22;7352;50.866;4.366;2023-06-14T02:33:07;22.30;61.00
14531;DHT22;7352;50.866;4.366;2023-06-14T02:35:37;22.40;60.90
14531;DHT22;7352;50.866;4.366;2023-06-14T02:38:04;22.40;61.50
14531;DHT22;7352;50.866;4.366;2023-06-14T02:40:31;22.20;61.70
14531;DHT22;7352;50.866;4.366;2023-06-14T02:42:58;22.10;62.00
14531;DHT22;7352;50.866;4.366;2023-06-14T02:45:26;22.20;61.80
14531;DHT22;7352;50.866;4.366;2023-06-14T02:47:52;22.00;61.90
14531;DHT22;7352;50.866;4.366;2023-06-14T02:50:23;21.90;62.10
14531;DHT22;7352;50.866;4.366;2023-06-14T02:52:51;22.00;62.30
14531;DHT22;7352;50.866;4.366;2023-06-14T02:55:21;22.00;62.90
14531;DHT22;7352;50.866;4.366;2023-06-14T02:57:48;22.00;61.90
14531;DHT22;7352;50.866;4.366;2023-06-14T03:00:16;22.00;63.10
14531;DHT22;7352;50.866;4.366;2023-06-14T03:02:43;22.00;62.50
14531;DHT22;7352;50.866;4.366;2023-06-14T03:05:10;21.80;62.50
14531;DHT22;7352;50.866;4.366;2023-06-14T03:07:39;22.00;62.60
14531;DHT22;7352;50.866;4.366;2023-06-14T03:10:11;21.90;62.30
14531;DHT22;7352;50.866;4.366;2023-06-14T03:12:38;21.90;62.30
14531;DHT22;7352;50.866;4.366;2023-06-14T03:15:06;21.90;62.70
14531;DHT22;7352;50.866;4.366;2023-06-14T03:17:34;21.70;63.00
14531;DHT22;7352;50.866;4.366;2023-06-14T03:20:05;21.80;63.00
14531;DHT22;7352;50.866;4.366;2023-06-14T03:22:34;21.80;63.30
14531;DHT22;7352;50.866;4.366;2023-06-14T03:25:05;21.80;63.00
14531;DHT22;7352;50.866;4.366;2023-06-14T03:27:32;21.70;63.30
14531;DHT22;7352;50.866;4.366;2023-06-14T03:29:59;21.60;63.30
14531;DHT22;7352;50.866;4.366;2023-06-14T03:32:27;21.60;63.70
14531;DHT22;7352;50.866;4.366;2023-06-14T03:34:57;21.50;63.70
14531;DHT22;7352;50.866;4.366;2023-06-14T03:37:24;21.60;63.90
14531;DHT22;7352;50.866;4.366;2023-06-14T03:39:52;21.60;63.20
14531;DHT22;7352;50.866;4.366;2023-06-14T03:42:21;21.60;63.40
14531;DHT22;7352;50.866;4.366;2023-06-14T03:44:48;21.60;63.90
14531;DHT22;7352;50.866;4.366;2023-06-14T03:47:15;21.50;63.90
14531;DHT22;7352;50.866;4.366;2023-06-14T03:49:42;21.50;63.70
14531;DHT22;7352;50.866;4.366;2023-06-14T03:52:09;21.40;63.80
14531;DHT22;7352;50.866;4.366;2023-06-14T03:54:36;21.30;63.60
14531;DHT22;7352;50.866;4.366;2023-06-14T03:57:04;21.40;63.80
14531;DHT22;7352;50.866;4.366;2023-06-14T03:59:33;21.40;64.60
14531;DHT22;7352;50.866;4.366;2023-06-14T04:02:00;21.30;64.80
14531;DHT22;7352;50.866;4.366;2023-06-14T04:04:28;21.20;65.50
14531;DHT22;7352;50.866;4.366;2023-06-14T04:06:55;21.10;65.00
14531;DHT22;7352;50.866;4.366;2023-06-14T04:09:23;21.10;65.30
14531;DHT22;7352;50.866;4.366;2023-06-14T04:11:53;21.10;65.40
14531;DHT22;7352;50.866;4.366;2023-06-14T04:14:20;21.00;65.70
14531;DHT22;7352;50.866;4.366;2023-06-14T04:16:52;21.00;65.80
14531;DHT22;7352;50.866;4.366;2023-06-14T04:19:21;21.10;65.90
14531;DHT22;7352;50.866;4.366;2023-06-14T04:21:49;21.10;65.70
14531;DHT22;7352;50.866;4.366;2023-06-14T04:24:16;21.00;66.00
14531;DHT22;7352;50.866;4.366;2023-06-14T04:26:44;20.90;66.40
14531;DHT22;7352;50.866;4.366;2023-06-14T04:29:14;21.00;67.60
14531;DHT22;7352;50.866;4.366;2023-06-14T04:31:42;20.90;66.20
14531;DHT22;7352;50.866;4.366;2023-06-14T04:34:11;21.00;66.10
14531;DHT22;7352;50.866;4.366;2023-06-14T04:36:41;21.00;66.00
14531;DHT22;7352;50.866;4.366;2023-06-14T04:39:14;21.10;66.80
14531;DHT22;7352;50.866;4.366;2023-06-14T04:41:41;21.10;66.80
14531;DHT22;7352;50.866;4.366;2023-06-14T04:44:08;21.00;66.50
14531;DHT22;7352;50.866;4.366;2023-06-14T04:46:35;21.00;66.50
14531;DHT22;7352;50.866;4.366;2023-06-14T04:49:12;21.20;66.40
14531;DHT22;7352;50.866;4.366;2023-06-14T04:51:41;21.40;65.60
14531;DHT22;7352;50.866;4.366;2023-06-14T04:54:08;21.20;66.90
14531;DHT22;7352;50.866;4.366;2023-06-14T04:56:37;21.20;66.10
14531;DHT22;7352;50.866;4.366;2023-06-14T04:59:05;21.20;66.00
14531;DHT22;7352;50.866;4.366;2023-06-14T05:01:32;21.40;65.60
14531;DHT22;7352;50.866;4.366;2023-06-14T05:04:00;21.30;65.80
14531;DHT22;7352;50.866;4.366;2023-06-14T05:06:28;21.40;65.80
14531;DHT22;7352;50.866;4.366;2023-06-14T05:08:56;21.40;65.50
14531;DHT22;7352;50.866;4.366;2023-06-14T05:11:25;21.40;65.00
14531;DHT22;7352;50.866;4.366;2023-06-14T05:14:22;21.60;65.20
14531;DHT22;7352;50.866;4.366;2023-06-14T05:17:07;21.70;64.80
14531;DHT22;7352;50.866;4.366;2023-06-14T05:19:36;21.70;64.20
14531;DHT22;7352;50.866;4.366;2023-06-14T05:22:13;21.70;64.50
14531;DHT22;7352;50.866;4.366;2023-06-14T05:24:40;21.70;64.10
14531;DHT22;7352;50.866;4.366;2023-06-14T05:27:09;21.60;64.50
14531;DHT22;7352;50.866;4.366;2023-06-14T05:29:37;21.80;64.20
14531;DHT22;7352;50.866;4.366;2023-06-14T05:32:05;21.80;64.20
14531;DHT22;7352;50.866;4.366;2023-06-14T05:34:32;21.90;63.60
14531;DHT22;7352;50.866;4.366;2023-06-14T05:36:59;22.10;63.00
14531;DHT22;7352;50.866;4.366;2023-06-14T05:39:27;22.00;63.40
14531;DHT22;7352;50.866;4.366;2023-06-14T05:41:54;22.00;64.00
14531;DHT22;7352;50.866;4.366;2023-06-14T05:44:21;22.00;63.20
14531;DHT22;7352;50.866;4.366;2023-06-14T05:46:48;22.10;63.40
14531;DHT22;7352;50.866;4.366;2023-06-14T05:49:15;22.20;62.90
14531;DHT22;7352;50.866;4.366;2023-06-14T05:51:42;22.30;62.80
14531;DHT22;7352;50.866;4.366;2023-06-14T05:54:09;22.40;62.00
14531;DHT22;7352;50.866;4.366;2023-06-14T05:56:37;22.40;62.40
14531;DHT22;7352;50.866;4.366;2023-06-14T05:59:04;22.40;61.70
14531;DHT22;7352;50.866;4.366;2023-06-14T06:01:31;22.20;62.70
14531;DHT22;7352;50.866;4.366;2023-06-14T06:03:59;22.20;62.50
14531;DHT22;7352;50.866;4.366;2023-06-14T06:06:26;22.30;62.80
14531;DHT22;7352;50.866;4.366;2023-06-14T06:08:54;22.40;63.00
14531;DHT22;7352;50.866;4.366;2023-06-14T06:11:21;22.40;62.20
14531;DHT22;7352;50.866;4.366;2023-06-14T06:13:50;22.50;62.50
14531;DHT22;7352;50.866;4.366;2023-06-14T06:16:23;22.60;62.10
14531;DHT22;7352;50.866;4.366;2023-06-14T06:18:50;22.80;62.30
14531;DHT22;7352;50.866;4.366;2023-06-14T06:21:17;23.00;61.40
14531;DHT22;7352;50.866;4.366;2023-06-14T06:23:44;23.00;60.70
14531;DHT22;7352;50.866;4.366;2023-06-14T06:26:11;23.00;60.50
14531;DHT22;7352;50.866;4.366;2023-06-14T06:28:38;23.10;59.90
14531;DHT22;7352;50.866;4.366;2023-06-14T06:31:07;22.90;59.70
14531;DHT22;7352;50.866;4.366;2023-06-14T06:33:34;23.10;60.00
14531;DHT22;7352;50.866;4.366;2023-06-14T06:36:05;23.20;60.80
14531;DHT22;7352;50.866;4.366;2023-06-14T06:38:32;23.20;60.00
14531;DHT22;7352;50.866;4.366;2023-06-14T06:40:59;23.40;59.60
14531;DHT22;7352;50.866;4.366;2023-06-14T06:43:26;23.40;59.40
14531;DHT22;7352;50.866;4.366;2023-06-14T06:45:53;23.70;59.70
14531;DHT22;7352;50.866;4.366;2023-06-14T06:48:22;23.70;59.40
14531;DHT22;7352;50.866;4.366;2023-06-14T06:50:49;23.70;59.00
14531;DHT22;7352;50.866;4.366;2023-06-14T06:53:16;23.80;59.10
14531;DHT22;7352;50.866;4.366;2023-06-14T06:55:44;23.80;59.00
14531;DHT22;7352;50.866;4.366;2023-06-14T06:58:12;23.80;59.60
14531;DHT22;7352;50.866;4.366;2023-06-14T07:00:39;23.70;59.80
14531;DHT22;7352;50.866;4.366;2023-06-14T07:03:06;23.90;59.60
14531;DHT22;7352;50.866;4.366;2023-06-14T07:05:35;24.10;59.20
14531;DHT22;7352;50.866;4.366;2023-06-14T07:08:03;24.10;59.10
14531;DHT22;7352;50.866;4.366;2023-06-14T07:10:30;24.20;58.80
14531;DHT22;7352;50.866;4.366;2023-06-14T07:12:57;24.30;59.10
14531;DHT22;7352;50.866;4.366;2023-06-14T07:15:30;24.30;58.60
14531;DHT22;7352;50.866;4.366;2023-06-14T07:17:56;24.50;59.00
14531;DHT22;7352;50.866;4.366;2023-06-14T07:20:25;24.60;59.00
14531;DHT22;7352;50.866;4.366;2023-06-14T07:22:53;24.60;58.40
14531;DHT22;7352;50.866;4.366;2023-06-14T07:25:21;24.70;59.00
14531;DHT22;7352;50.866;4.366;2023-06-14T07:27:48;24.70;58.80
14531;DHT22;7352;50.866;4.366;2023-06-14T07:30:15;24.70;59.10
14531;DHT22;7352;50.866;4.366;2023-06-14T07:32:42;24.70;58.60
14531;DHT22;7352;50.866;4.366;2023-06-14T07:35:09;24.70;58.80
14531;DHT22;7352;50.866;4.366;2023-06-14T07:37:36;24.80;58.90
14531;DHT22;7352;50.866;4.366;2023-06-14T07:40:07;24.90;58.60
14531;DHT22;7352;50.866;4.366;2023-06-14T07:42:36;24.90;59.40
14531;DHT22;7352;50.866;4.366;2023-06-14T07:45:04;25.10;58.90
14531;DHT22;7352;50.866;4.366;2023-06-14T07:47:33;25.10;58.60
14531;DHT22;7352;50.866;4.366;2023-06-14T07:50:00;25.30;58.00
14531;DHT22;7352;50.866;4.366;2023-06-14T07:52:28;25.40;58.00
14531;DHT22;7352;50.866;4.366;2023-06-14T07:54:56;25.40;58.00
14531;DHT22;7352;50.866;4.366;2023-06-14T07:57:25;25.40;58.10
14531;DHT22;7352;50.866;4.366;2023-06-14T07:59:52;25.60;57.80
14531;DHT22;7352;50.866;4.366;2023-06-14T08:02:20;25.60;58.00
14531;DHT22;7352;50.866;4.366;2023-06-14T08:04:47;25.50;58.10
14531;DHT22;7352;50.866;4.366;2023-06-14T08:07:14;25.50;58.80
14531;DHT22;7352;50.866;4.366;2023-06-14T08:09:41;25.60;57.80
14531;DHT22;7352;50.866;4.366;2023-06-14T08:12:08;25.70;56.70
14531;DHT22;7352;50.866;4.366;2023-06-14T08:14:39;25.60;57.10
14531;DHT22;7352;50.866;4.366;2023-06-14T08:17:07;25.70;56.90
14531;DHT22;7352;50.866;4.366;2023-06-14T08:19:34;25.80;56.60
14531;DHT22;7352;50.866;4.366;2023-06-14T08:22:02;25.80;56.50
14531;DHT22;7352;50.866;4.366;2023-06-14T08:24:29;25.90;57.10
14531;DHT22;7352;50.866;4.366;2023-06-14T08:26:56;26.00;57.60
14531;DHT22;7352;50.866;4.366;2023-06-14T08:29:26;26.30;57.90
14531;DHT22;7352;50.866;4.366;2023-06-14T08:31:57;26.20;57.60
14531;DHT22;7352;50.866;4.366;2023-06-14T08:34:24;26.10;57.40
14531;DHT22;7352;50.866;4.366;2023-06-14T08:36:51;26.20;57.70
14531;DHT22;7352;50.866;4.366;2023-06-14T08:39:18;26.30;56.40
14531;DHT22;7352;50.866;4.366;2023-06-14T08:41:47;26.10;56.20
14531;DHT22;7352;50.866;4.366;2023-06-14T08:44:15;26.30;56.60
14531;DHT22;7352;50.866;4.366;2023-06-14T08:46:43;26.40;56.60
14531;DHT22;7352;50.866;4.366;2023-06-14T08:49:12;26.30;56.20
14531;DHT22;7352;50.866;4.366;2023-06-14T08:51:39;26.40;55.80
14531;DHT22;7352;50.866;4.366;2023-06-14T08:54:07;26.40;56.70
14531;DHT22;7352;50.866;4.366;2023-06-14T08:56:36;26.30;56.60
14531;DHT22;7352;50.866;4.366;2023-06-14T08:59:04;26.50;57.20
14531;DHT22;7352;50.866;4.366;2023-06-14T09:01:34;26.60;57.30
14531;DHT22;7352;50.866;4.366;2023-06-14T09:04:02;26.80;57.20
14531;DHT22;7352;50.866;4.366;2023-06-14T09:06:32;26.70;57.30
14531;DHT22;7352;50.866;4.366;2023-06-14T09:08:59;26.80;56.70
14531;DHT22;7352;50.866;4.366;2023-06-14T09:11:27;26.80;56.10
14531;DHT22;7352;50.866;4.366;2023-06-14T09:13:55;26.80;55.90
14531;DHT22;7352;50.866;4.366;2023-06-14T09:16:22;26.80;56.40
14531;DHT22;7352;50.866;4.366;2023-06-14T09:18:49;26.70;56.40
14531;DHT22;7352;50.866;4.366;2023-06-14T09:21:17;26.80;57.30
14531;DHT22;7352;50.866;4.366;2023-06-14T09:23:46;26.90;57.00
14531;DHT22;7352;50.866;4.366;2023-06-14T09:26:15;26.90;57.30
14531;DHT22;7352;50.866;4.366;2023-06-14T09:28:43;27.10;57.20
14531;DHT22;7352;50.866;4.366;2023-06-14T09:31:11;27.50;56.30
14531;DHT22;7352;50.866;4.366;2023-06-14T09:33:42;27.50;56.00
14531;DHT22;7352;50.866;4.366;2023-06-14T09:36:22;27.60;55.80
14531;DHT22;7352;50.866;4.366;2023-06-14T09:38:59;27.40;56.40
14531;DHT22;7352;50.866;4.366;2023-06-14T09:41:35;27.30;55.00
14531;DHT22;7352;50.866;4.366;2023-06-14T09:44:04;27.40;54.40
14531;DHT22;7352;50.866;4.366;2023-06-14T09:46:32;27.40;54.40
14531;DHT22;7352;50.866;4.366;2023-06-14T09:49:01;27.40;54.60
14531;DHT22;7352;50.866;4.366;2023-06-14T09:51:30;27.50;52.30
14531;DHT22;7352;50.866;4.366;2023-06-14T09:53:59;27.50;53.80
14531;DHT22;7352;50.866;4.366;2023-06-14T09:56:28;27.60;53.10
14531;DHT22;7352;50.866;4.366;2023-06-14T09:58:57;27.60;53.60
14531;DHT22;7352;50.866;4.366;2023-06-14T10:01:25;27.50;54.60
14531;DHT22;7352;50.866;4.366;2023-06-14T10:03:55;27.60;54.50
14531;DHT22;7352;50.866;4.366;2023-06-14T10:06:26;27.50;55.00
14531;DHT22;7352;50.866;4.366;2023-06-14T10:08:59;27.60;53.60
14531;DHT22;7352;50.866;4.366;2023-06-14T10:11:27;27.80;53.40
14531;DHT22;7352;50.866;4.366;2023-06-14T10:13:55;27.90;53.40
14531;DHT22;7352;50.866;4.366;2023-06-14T10:16:27;28.00;51.40
14531;DHT22;7352;50.866;4.366;2023-06-14T10:19:04;27.80;51.00
14531;DHT22;7352;50.866;4.366;2023-06-14T10:21:43;27.70;50.70
14531;DHT22;7352;50.866;4.366;2023-06-14T10:24:17;27.80;50.90
14531;DHT22;7352;50.866;4.366;2023-06-14T10:26:56;27.70;49.80
14531;DHT22;7352;50.866;4.366;2023-06-14T10:29:24;27.80;49.00
14531;DHT22;7352;50.866;4.366;2023-06-14T10:31:56;27.70;49.20
14531;DHT22;7352;50.866;4.366;2023-06-14T10:34:26;27.80;49.80
14531;DHT22;7352;50.866;4.366;2023-06-14T10:37:02;27.80;50.00
14531;DHT22;7352;50.866;4.366;2023-06-14T10:39:33;27.80;49.60
14531;DHT22;7352;50.866;4.366;2023-06-14T10:42:03;27.80;49.40
14531;DHT22;7352;50.866;4.366;2023-06-14T10:44:49;27.80;49.80
14531;DHT22;7352;50.866;4.366;2023-06-14T10:47:29;28.00;50.50
14531;DHT22;7352;50.866;4.366;2023-06-14T10:50:02;28.20;50.90
14531;DHT22;7352;50.866;4.366;2023-06-14T10:52:34;28.30;50.00
14531;DHT22;7352;50.866;4.366;2023-06-14T10:55:09;28.30;49.00
14531;DHT22;7352;50.866;4.366;2023-06-14T10:57:38;28.30;48.30
14531;DHT22;7352;50.866;4.366;2023-06-14T11:00:07;28.20;48.10
14531;DHT22;7352;50.866;4.366;2023-06-14T11:05:43;28.30;47.80
14531;DHT22;7352;50.866;4.366;2023-06-14T11:08:39;28.50;48.60
14531;DHT22;7352;50.866;4.366;2023-06-14T11:11:09;28.50;47.60
14531;DHT22;7352;50.866;4.366;2023-06-14T11:13:39;28.50;48.20
14531;DHT22;7352;50.866;4.366;2023-06-14T11:16:10;28.30;47.40
14531;DHT22;7352;50.866;4.366;2023-06-14T11:18:38;28.60;48.10
14531;DHT22;7352;50.866;4.366;2023-06-14T11:21:06;28.60;47.00
14531;DHT22;7352;50.866;4.366;2023-06-14T11:23:34;28.70;45.80
14531;DHT22;7352;50.866;4.366;2023-06-14T11:26:01;28.70;45.90
14531;DHT22;7352;50.866;4.366;2023-06-14T11:28:39;28.50;47.20
14531;DHT22;7352;50.866;4.366;2023-06-14T11:31:07;28.50;48.30
14531;DHT22;7352;50.866;4.366;2023-06-14T11:33:34;28.60;48.00
14531;DHT22;7352;50.866;4.366;2023-06-14T11:36:03;28.80;47.10
14531;DHT22;7352;50.866;4.366;2023-06-14T11:38:35;28.70;47.90
14531;DHT22;7352;50.866;4.366;2023-06-14T11:41:03;28.70;47.80
14531;DHT22;7352;50.866;4.366;2023-06-14T11:43:31;28.80;47.70
14531;DHT22;7352;50.866;4.366;2023-06-14T11:46:01;28.60;47.70
14531;DHT22;7352;50.866;4.366;2023-06-14T11:48:38;28.80;48.20
14531;DHT22;7352;50.866;4.366;2023-06-14T11:51:07;28.80;47.80
14531;DHT22;7352;50.866;4.366;2023-06-14T11:53:55;28.90;47.70
14531;DHT22;7352;50.866;4.366;2023-06-14T11:56:25;28.90;47.80
14531;DHT22;7352;50.866;4.366;2023-06-14T11:58:53;28.80;47.40
14531;DHT22;7352;50.866;4.366;2023-06-14T12:01:29;28.80;47.50
14531;DHT22;7352;50.866;4.366;2023-06-14T12:04:01;28.70;48.00
14531;DHT22;7352;50.866;4.366;2023-06-14T12:06:30;28.90;48.00
14531;DHT22;7352;50.866;4.366;2023-06-14T12:09:04;29.00;46.90
14531;DHT22;7352;50.866;4.366;2023-06-14T12:11:41;29.10;46.30
14531;DHT22;7352;50.866;4.366;2023-06-14T12:14:09;29.10;46.10
14531;DHT22;7352;50.866;4.366;2023-06-14T12:16:38;29.00;46.90
14531;DHT22;7352;50.866;4.366;2023-06-14T12:19:12;29.00;46.50
14531;DHT22;7352;50.866;4.366;2023-06-14T12:21:42;28.90;46.70
14531;DHT22;7352;50.866;4.366;2023-06-14T12:24:09;29.10;46.80
14531;DHT22;7352;50.866;4.366;2023-06-14T12:26:39;29.20;46.10
14531;DHT22;7352;50.866;4.366;2023-06-14T12:29:06;29.30;46.30
14531;DHT22;7352;50.866;4.366;2023-06-14T12:31:46;29.30;45.70
14531;DHT22;7352;50.866;4.366;2023-06-14T12:34:14;29.40;46.30
14531;DHT22;7352;50.866;4.366;2023-06-14T12:36:44;29.30;46.40
14531;DHT22;7352;50.866;4.366;2023-06-14T12:39:14;29.60;45.50
14531;DHT22;7352;50.866;4.366;2023-06-14T12:41:46;29.60;44.70
14531;DHT22;7352;50.866;4.366;2023-06-14T12:44:16;29.70;44.80
14531;DHT22;7352;50.866;4.366;2023-06-14T12:46:48;29.90;44.70
14531;DHT22;7352;50.866;4.366;2023-06-14T12:49:19;29.90;44.30
14531;DHT22;7352;50.866;4.366;2023-06-14T12:51:47;29.80;44.90
14531;DHT22;7352;50.866;4.366;2023-06-14T12:54:24;29.80;44.90
14531;DHT22;7352;50.866;4.366;2023-06-14T12:56:55;29.80;45.10
14531;DHT22;7352;50.866;4.366;2023-06-14T12:59:25;29.50;44.80
14531;DHT22;7352;50.866;4.366;2023-06-14T13:02:24;29.70;45.50
14531;DHT22;7352;50.866;4.366;2023-06-14T13:04:53;29.80;45.40
14531;DHT22;7352;50.866;4.366;2023-06-14T13:07:33;29.70;45.40
14531;DHT22;7352;50.866;4.366;2023-06-14T13:10:00;29.80;44.80
14531;DHT22;7352;50.866;4.366;2023-06-14T13:12:28;29.90;43.90
14531;DHT22;7352;50.866;4.366;2023-06-14T13:15:01;29.90;44.00
14531;DHT22;7352;50.866;4.366;2023-06-14T13:17:38;29.90;45.40
14531;DHT22;7352;50.866;4.366;2023-06-14T13:20:07;30.00;45.10
14531;DHT22;7352;50.866;4.366;2023-06-14T13:23:09;29.90;45.10
14531;DHT22;7352;50.866;4.366;2023-06-14T13:25:50;29.90;45.60
14531;DHT22;7352;50.866;4.366;2023-06-14T13:28:17;30.00;45.00
14531;DHT22;7352;50.866;4.366;2023-06-14T13:30:48;30.00;45.20
14531;DHT22;7352;50.866;4.366;2023-06-14T13:33:20;30.20;45.20
14531;DHT22;7352;50.866;4.366;2023-06-14T13:35:49;30.30;44.50
14531;DHT22;7352;50.866;4.366;2023-06-14T13:38:30;30.40;43.90
14531;DHT22;7352;50.866;4.366;2023-06-14T13:44:26;30.40;43.70
14531;DHT22;7352;50.866;4.366;2023-06-14T13:46:53;30.30;43.60
14531;DHT22;7352;50.866;4.366;2023-06-14T13:49:24;30.30;42.60
14531;DHT22;7352;50.866;4.366;2023-06-14T13:51:50;30.40;43.70
14531;DHT22;7352;50.866;4.366;2023-06-14T13:54:20;30.50;42.50
14531;DHT22;7352;50.866;4.366;2023-06-14T13:56:48;30.60;42.20
14531;DHT22;7352;50.866;4.366;2023-06-14T13:59:15;30.70;42.50
14531;DHT22;7352;50.866;4.366;2023-06-14T14:01:42;30.80;42.30
14531;DHT22;7352;50.866;4.366;2023-06-14T14:04:11;30.70;41.70
14531;DHT22;7352;50.866;4.366;2023-06-14T14:06:44;30.60;41.90
14531;DHT22;7352;50.866;4.366;2023-06-14T14:09:13;30.60;41.50
14531;DHT22;7352;50.866;4.366;2023-06-14T14:11:41;30.70;41.50
14531;DHT22;7352;50.866;4.366;2023-06-14T14:14:08;30.80;42.10
14531;DHT22;7352;50.866;4.366;2023-06-14T14:16:36;30.70;42.50
14531;DHT22;7352;50.866;4.366;2023-06-14T14:19:03;30.50;43.00
14531;DHT22;7352;50.866;4.366;2023-06-14T14:21:31;30.70;41.90
14531;DHT22;7352;50.866;4.366;2023-06-14T14:24:04;30.80;41.50
14531;DHT22;7352;50.866;4.366;2023-06-14T14:26:31;30.90;40.30
14531;DHT22;7352;50.866;4.366;2023-06-14T14:28:59;30.90;41.30
14531;DHT22;7352;50.866;4.366;2023-06-14T14:31:28;30.80;40.90
14531;DHT22;7352;50.866;4.366;2023-06-14T14:33:55;31.10;41.10
14531;DHT22;7352;50.866;4.366;2023-06-14T14:36:24;31.30;40.60
14531;DHT22;7352;50.866;4.366;2023-06-14T14:38:52;31.40;40.00
14531;DHT22;7352;50.866;4.366;2023-06-14T14:41:21;31.40;39.70
14531;DHT22;7352;50.866;4.366;2023-06-14T14:43:50;31.70;40.00
14531;DHT22;7352;50.866;4.366;2023-06-14T14:46:17;31.80;39.20
14531;DHT22;7352;50.866;4.366;2023-06-14T14:48:44;31.90;39.30
14531;DHT22;7352;50.866;4.366;2023-06-14T14:51:12;32.20;39.70
14531;DHT22;7352;50.866;4.366;2023-06-14T14:53:47;32.40;39.30
14531;DHT22;7352;50.866;4.366;2023-06-14T14:56:14;32.60;38.90
14531;DHT22;7352;50.866;4.366;2023-06-14T14:58:45;32.60;38.30
14531;DHT22;7352;50.866;4.366;2023-06-14T15:01:14;32.70;38.80
14531;DHT22;7352;50.866;4.366;2023-06-14T15:03:51;33.30;38.80
14531;DHT22;7352;50.866;4.366;2023-06-14T15:06:19;33.60;38.10
14531;DHT22;7352;50.866;4.366;2023-06-14T15:08:48;34.00;38.60
14531;DHT22;7352;50.866;4.366;2023-06-14T15:11:16;34.30;37.20
14531;DHT22;7352;50.866;4.366;2023-06-14T15:13:48;34.10;37.10
14531;DHT22;7352;50.866;4.366;2023-06-14T15:16:34;34.00;37.00
14531;DHT22;7352;50.866;4.366;2023-06-14T15:19:28;33.60;36.70
14531;DHT22;7352;50.866;4.366;2023-06-14T15:21:57;33.60;37.70
14531;DHT22;7352;50.866;4.366;2023-06-14T15:24:25;33.60;37.70
14531;DHT22;7352;50.866;4.366;2023-06-14T15:26:55;34.20;38.70
14531;DHT22;7352;50.866;4.366;2023-06-14T15:29:23;34.50;37.60
14531;DHT22;7352;50.866;4.366;2023-06-14T15:31:50;34.70;36.70
14531;DHT22;7352;50.866;4.366;2023-06-14T15:34:20;34.70;36.90
14531;DHT22;7352;50.866;4.366;2023-06-14T15:36:47;35.00;37.40
14531;DHT22;7352;50.866;4.366;2023-06-14T15:39:14;35.20;37.50
14531;DHT22;7352;50.866;4.366;2023-06-14T15:41:51;35.10;37.40
14531;DHT22;7352;50.866;4.366;2023-06-14T15:44:19;35.00;37.10
14531;DHT22;7352;50.866;4.366;2023-06-14T15:47:08;34.90;37.60
14531;DHT22;7352;50.866;4.366;2023-06-14T15:49:37;34.90;37.40
14531;DHT22;7352;50.866;4.366;2023-06-14T15:52:06;35.00;38.00
14531;DHT22;7352;50.866;4.366;2023-06-14T15:54:38;35.20;37.30
14531;DHT22;7352;50.866;4.366;2023-06-14T15:57:09;35.40;37.40
14531;DHT22;7352;50.866;4.366;2023-06-14T15:59:37;35.20;36.90
14531;DHT22;7352;50.866;4.366;2023-06-14T16:02:05;35.50;37.00
14531;DHT22;7352;50.866;4.366;2023-06-14T16:04:34;35.70;36.30
14531;DHT22;7352;50.866;4.366;2023-06-14T16:07:01;35.90;35.90
14531;DHT22;7352;50.866;4.366;2023-06-14T16:09:28;36.00;36.20
14531;DHT22;7352;50.866;4.366;2023-06-14T16:11:55;36.00;35.60